Wetterstation Vordersexau
Wetterdaten: Woche 20.10.14 - 26.10.14 (KW43)
Datum Zeit Temp. A. Feuchte A. Luftdruck Regen Wind Richtung Taupunkt Windchill Windben
20.10.2014 00:00 14,1 C 84 % 992,2 hPa 0,0 l/m 0,0 km/h NO 11,4 C 14,1 C 0,0 km/h
20.10.2014 01:00 13,3 C 84 % 992,0 hPa 0,0 l/m 0,0 km/h O-SO 10,7 C 13,3 C 0,0 km/h
20.10.2014 02:00 12,8 C 85 % 992,3 hPa 0,0 l/m 0,0 km/h O-SO 10,3 C 12,8 C 0,0 km/h
20.10.2014 03:00 12,9 C 85 % 992,1 hPa 0,0 l/m 0,0 km/h O-SO 10,4 C 12,9 C 0,0 km/h
20.10.2014 04:00 12,4 C 84 % 991,3 hPa 0,0 l/m 0,0 km/h O-SO 9,8 C 12,4 C 0,0 km/h
20.10.2014 05:00 12,3 C 83 % 991,3 hPa 0,0 l/m 0,0 km/h O-SO 9,5 C 12,3 C 0,0 km/h
20.10.2014 06:00 11,9 C 83 % 990,9 hPa 0,0 l/m 0,0 km/h O 9,1 C 11,9 C 0,0 km/h
20.10.2014 07:00 12,2 C 82 % 991,1 hPa 0,0 l/m 0,0 km/h O 9,2 C 12,2 C 0,0 km/h
20.10.2014 08:00 13,4 C 80 % 991,5 hPa 0,0 l/m 0,0 km/h SO 10,0 C 13,4 C 0,0 km/h
20.10.2014 09:00 18,2 C 79 % 991,3 hPa 0,0 l/m 0,0 km/h S 14,5 C 18,2 C 0,0 km/h
20.10.2014 10:00 25,5 C 66 % 990,8 hPa 0,0 l/m 0,0 km/h SW 18,7 C 25,5 C 0,0 km/h
20.10.2014 11:00 26,8 C 58 % 990,7 hPa 0,0 l/m 14,9 km/h W-SW 17,8 C 25,5 C 8,3 km/h
20.10.2014 12:00 24,8 C 59 % 990,0 hPa 0,0 l/m 12,3 km/h W-SW 16,2 C 23,5 C 6,8 km/h
20.10.2014 13:00 23,1 C 65 % 989,3 hPa 0,0 l/m 8,4 km/h SW 16,2 C 22,5 C 4,7 km/h
20.10.2014 14:00 22,6 C 68 % 988,7 hPa 0,0 l/m 24,0 km/h W 16,4 C 19,0 C 13,3 km/h
20.10.2014 15:00 21,7 C 72 % 988,3 hPa 0,0 l/m 15,6 km/h W 16,4 C 19,2 C 8,6 km/h
20.10.2014 16:00 21,1 C 73 % 988,0 hPa 0,0 l/m 6,5 km/h NW 16,1 C 21,1 C 3,6 km/h
20.10.2014 17:00 19,6 C 75 % 987,9 hPa 0,0 l/m 0,0 km/h NW 15,0 C 19,6 C 0,0 km/h
20.10.2014 18:00 17,9 C 79 % 987,4 hPa 0,0 l/m 0,0 km/h O-NO 14,2 C 17,9 C 0,0 km/h
20.10.2014 19:00 16,9 C 82 % 987,9 hPa 0,0 l/m 0,0 km/h SO 13,8 C 16,9 C 0,0 km/h
20.10.2014 20:00 16,4 C 84 % 988,0 hPa 1,2 l/m 0,0 km/h S 13,7 C 16,4 C 0,0 km/h
20.10.2014 21:00 15,9 C 84 % 987,8 hPa 0,4 l/m 0,0 km/h W-NW 13,2 C 15,9 C 0,0 km/h
20.10.2014 22:00 15,9 C 84 % 987,7 hPa 2,1 l/m 0,0 km/h S-SW 13,2 C 15,9 C 0,0 km/h
20.10.2014 23:00 15,4 C 82 % 987,1 hPa 0,4 l/m 0,0 km/h W 12,3 C 15,4 C 0,0 km/h
21.10.2014 00:00 15,5 C 82 % 986,9 hPa 0,0 l/m 0,0 km/h W 12,4 C 15,5 C 0,0 km/h
21.10.2014 01:00 14,6 C 81 % 987,3 hPa 1,9 l/m 0,0 km/h S-SW 11,4 C 14,6 C 0,0 km/h
21.10.2014 02:00 14,5 C 81 % 987,2 hPa 0,0 l/m 0,0 km/h S-SW 11,3 C 14,5 C 0,0 km/h
21.10.2014 03:00 14,3 C 80 % 986,6 hPa 0,2 l/m 0,0 km/h W-SW 10,9 C 14,3 C 0,0 km/h
21.10.2014 04:00 14,2 C 79 % 986,1 hPa 0,0 l/m 0,0 km/h W-SW 10,6 C 14,2 C 0,0 km/h
21.10.2014 05:00 14,0 C 79 % 985,4 hPa 0,0 l/m 0,0 km/h W-SW 10,4 C 14,0 C 0,0 km/h
21.10.2014 06:00 13,9 C 78 % 985,3 hPa 0,0 l/m 0,0 km/h W-SW 10,1 C 13,9 C 0,0 km/h
21.10.2014 07:00 13,9 C 77 % 985,1 hPa 0,0 l/m 0,0 km/h W-SW 9,9 C 13,9 C 0,0 km/h
21.10.2014 08:00 14,3 C 77 % 985,4 hPa 0,0 l/m 3,2 km/h W-SW 10,3 C 14,3 C 1,8 km/h
21.10.2014 09:00 14,9 C 81 % 985,2 hPa 0,0 l/m 0,0 km/h S-SW 11,7 C 14,9 C 0,0 km/h
21.10.2014 10:00 17,4 C 83 % 984,6 hPa 0,0 l/m 21,4 km/h W 14,5 C 12,5 C 11,9 km/h
21.10.2014 11:00 19,8 C 74 % 984,5 hPa 0,0 l/m 16,8 km/h W-SW 15,0 C 16,6 C 9,4 km/h
21.10.2014 12:00 19,3 C 70 % 983,2 hPa 0,0 l/m 23,3 km/h SW 13,7 C 14,7 C 13,0 km/h
21.10.2014 13:00 18,9 C 71 % 982,4 hPa 0,0 l/m 18,8 km/h W 13,5 C 15,0 C 10,4 km/h
21.10.2014 14:00 17,3 C 69 % 981,7 hPa 0,0 l/m 13,6 km/h W-NW 11,6 C 14,4 C 7,6 km/h
21.10.2014 15:00 16,8 C 70 % 980,2 hPa 0,0 l/m 22,7 km/h SW 11,3 C 11,5 C 12,6 km/h
21.10.2014 16:00 17,4 C 69 % 978,3 hPa 0,0 l/m 33,0 km/h SW 11,7 C 10,7 C 18,4 km/h
21.10.2014 17:00 15,6 C 77 % 976,9 hPa 0,0 l/m 24,0 km/h W 11,6 C 9,6 C 13,3 km/h
21.10.2014 18:00 14,7 C 83 % 977,5 hPa 0,2 l/m 20,7 km/h N-NO 11,8 C 9,2 C 11,5 km/h
21.10.2014 19:00 9,1 C 84 % 981,9 hPa 1,2 l/m 0,0 km/h S 6,5 C 9,1 C 0,0 km/h
21.10.2014 20:00 9,9 C 84 % 983,1 hPa 0,0 l/m 0,0 km/h W-NW 7,3 C 9,9 C 0,0 km/h
21.10.2014 21:00 9,8 C 77 % 985,4 hPa 0,0 l/m 0,0 km/h W-SW 6,0 C 9,8 C 0,0 km/h
21.10.2014 22:00 9,2 C 77 % 987,3 hPa 0,0 l/m 0,0 km/h SW 5,4 C 9,2 C 0,0 km/h
21.10.2014 23:00 8,8 C 77 % 987,7 hPa 0,0 l/m 6,1 km/h W-SW 5,0 C 8,8 C 6,1 km/h
22.10.2014 00:00 8,4 C 80 % 988,4 hPa 0,0 l/m 2,9 km/h W-SW 5,2 C 8,4 C 2,9 km/h
22.10.2014 01:00 7,6 C 83 % 988,5 hPa 0,2 l/m 3,6 km/h W-NW 4,9 C 7,6 C 3,6 km/h
22.10.2014 02:00 7,6 C 84 % 988,9 hPa 0,2 l/m 2,9 km/h W 5,1 C 7,6 C 2,9 km/h
22.10.2014 03:00 6,5 C 85 % 989,4 hPa 0,2 l/m 0,0 km/h W 4,2 C 6,5 C 0,0 km/h
22.10.2014 04:00 6,8 C 85 % 989,0 hPa 0,0 l/m 0,7 km/h W 4,5 C 6,8 C 0,7 km/h
22.10.2014 05:00 6,5 C 83 % 988,8 hPa 0,0 l/m 0,0 km/h W-NW 3,8 C 6,5 C 0,0 km/h
22.10.2014 06:00 6,7 C 81 % 989,6 hPa 0,0 l/m 0,0 km/h W-NW 3,7 C 6,7 C 0,0 km/h
22.10.2014 07:00 6,7 C 80 % 990,4 hPa 0,0 l/m 7,8 km/h SW 3,5 C 5,5 C 4,3 km/h
22.10.2014 08:00 6,8 C 80 % 991,3 hPa 0,0 l/m 16,8 km/h W-NW 3,6 C 0,4 C 9,4 km/h
22.10.2014 09:00 6,5 C 79 % 992,1 hPa 0,0 l/m 1,9 km/h W-SW 3,1 C 6,5 C 1,1 km/h
22.10.2014 10:00 7,3 C 80 % 992,2 hPa 0,0 l/m 16,8 km/h W 4,1 C 1,1 C 9,4 km/h
22.10.2014 11:00 7,3 C 81 % 992,7 hPa 0,0 l/m 1,3 km/h W 4,3 C 7,3 C 0,7 km/h
22.10.2014 12:00 6,9 C 80 % 993,0 hPa 0,2 l/m 4,5 km/h NW 3,7 C 6,9 C 2,5 km/h
22.10.2014 13:00 7,5 C 81 % 992,9 hPa 0,0 l/m 9,7 km/h W-NW 4,5 C 5,0 C 5,4 km/h
22.10.2014 14:00 8,0 C 78 % 992,9 hPa 0,0 l/m 0,0 km/h W-SW 4,4 C 8,0 C 0,0 km/h
22.10.2014 15:00 7,9 C 78 % 992,4 hPa 0,0 l/m 1,3 km/h W 4,3 C 7,9 C 0,7 km/h
22.10.2014 16:00 8,3 C 78 % 992,0 hPa 0,0 l/m 0,0 km/h W 4,7 C 8,3 C 0,0 km/h
22.10.2014 17:00 8,6 C 75 % 992,2 hPa 0,0 l/m 0,0 km/h W 4,4 C 8,6 C 0,0 km/h
22.10.2014 18:00 7,9 C 79 % 992,6 hPa 0,0 l/m 1,9 km/h W-NW 4,5 C 7,9 C 1,1 km/h
22.10.2014 19:00 8,0 C 79 % 993,2 hPa 0,0 l/m 3,9 km/h W-SW 4,6 C 8,0 C 2,2 km/h
22.10.2014 20:00 7,8 C 80 % 993,4 hPa 0,0 l/m 0,0 km/h S-SW 4,6 C 7,8 C 0,0 km/h
22.10.2014 21:00 7,2 C 83 % 993,8 hPa 0,0 l/m 0,0 km/h W 4,5 C 7,2 C 0,0 km/h
22.10.2014 22:00 6,9 C 84 % 994,3 hPa 0,2 l/m 0,0 km/h W 4,4 C 6,9 C 0,0 km/h
22.10.2014 23:00 7,1 C 85 % 994,2 hPa 0,0 l/m 0,0 km/h W 4,8 C 7,1 C 0,0 km/h
23.10.2014 00:00 7,3 C 85 % 994,4 hPa 0,0 l/m 0,0 km/h W 4,9 C 7,3 C 0,0 km/h
23.10.2014 01:00 7,2 C 85 % 994,8 hPa 0,0 l/m 0,0 km/h S-SW 4,9 C 7,2 C 0,0 km/h
23.10.2014 02:00 7,4 C 85 % 995,0 hPa 0,0 l/m 0,0 km/h SW 5,0 C 7,4 C 0,0 km/h
23.10.2014 03:00 7,3 C 85 % 995,1 hPa 0,0 l/m 0,0 km/h S-SW 4,9 C 7,3 C 0,0 km/h
23.10.2014 04:00 7,3 C 85 % 995,2 hPa 0,0 l/m 0,0 km/h W 4,9 C 7,3 C 0,0 km/h
23.10.2014 05:00 7,3 C 85 % 995,1 hPa 0,0 l/m 0,0 km/h W 4,9 C 7,3 C 0,0 km/h
23.10.2014 06:00 7,4 C 85 % 995,4 hPa 0,0 l/m 0,0 km/h W-SW 5,0 C 7,4 C 0,0 km/h
23.10.2014 07:00 7,3 C 85 % 995,6 hPa 0,0 l/m 0,0 km/h N-NW 4,9 C 7,3 C 0,0 km/h
23.10.2014 08:00 6,9 C 85 % 996,1 hPa 0,0 l/m 0,0 km/h N-NW 4,6 C 6,9 C 0,0 km/h
23.10.2014 09:00 7,9 C 86 % 996,6 hPa 0,2 l/m 0,0 km/h N-NW 5,7 C 7,9 C 0,0 km/h
23.10.2014 10:00 9,9 C 85 % 996,9 hPa 0,0 l/m 0,0 km/h O-SO 7,5 C 9,9 C 0,0 km/h
23.10.2014 11:00 12,8 C 77 % 996,9 hPa 0,0 l/m 0,0 km/h S-SO 8,9 C 12,8 C 0,0 km/h
23.10.2014 12:00 16,3 C 68 % 996,3 hPa 0,0 l/m 0,0 km/h S-SW 10,4 C 16,3 C 0,0 km/h
23.10.2014 13:00 14,4 C 65 % 996,0 hPa 0,0 l/m 0,0 km/h S-SO 7,9 C 14,4 C 0,0 km/h
23.10.2014 14:00 14,8 C 64 % 995,7 hPa 0,0 l/m 0,0 km/h SO 8,1 C 14,8 C 0,0 km/h
23.10.2014 15:00 12,8 C 69 % 995,2 hPa 0,0 l/m 0,0 km/h O 7,3 C 12,8 C 0,0 km/h
23.10.2014 16:00 20,3 C 50 % 994,5 hPa 0,0 l/m 0,0 km/h O 9,5 C 20,3 C 0,0 km/h
23.10.2014 17:00 17,6 C 52 % 994,6 hPa 0,0 l/m 0,0 km/h O 7,6 C 17,6 C 0,0 km/h
23.10.2014 18:00 7,8 C 74 % 994,9 hPa 0,0 l/m 0,0 km/h O 3,5 C 7,8 C 0,0 km/h
23.10.2014 19:00 7,2 C 82 % 995,0 hPa 0,0 l/m 0,0 km/h O-SO 4,3 C 7,2 C 0,0 km/h
23.10.2014 20:00 8,1 C 83 % 994,7 hPa 0,0 l/m 0,0 km/h SO 5,4 C 8,1 C 0,0 km/h
23.10.2014 21:00 8,1 C 83 % 994,7 hPa 0,0 l/m 0,0 km/h NO 5,4 C 8,1 C 0,0 km/h
23.10.2014 22:00 7,0 C 84 % 994,8 hPa 0,0 l/m 0,0 km/h O-SO 4,5 C 7,0 C 0,0 km/h
23.10.2014 23:00 5,4 C 85 % 994,8 hPa 0,0 l/m 0,0 km/h SO 3,1 C 5,4 C 0,0 km/h
24.10.2014 00:00 6,4 C 85 % 994,7 hPa 0,0 l/m 0,0 km/h O-NO 4,1 C 6,4 C 0,0 km/h
24.10.2014 01:00 5,3 C 86 % 994,4 hPa 0,0 l/m 0,0 km/h SO 3,2 C 5,3 C 0,0 km/h
24.10.2014 02:00 4,4 C 85 % 993,9 hPa 0,0 l/m 2,2 km/h NO 2,1 C 4,4 C 2,2 km/h
24.10.2014 03:00 3,8 C 86 % 993,5 hPa 0,0 l/m 0,0 km/h O 1,7 C 3,8 C 0,0 km/h
24.10.2014 04:00 3,2 C 86 % 993,5 hPa 0,0 l/m 0,0 km/h O-SO 1,1 C 3,2 C 0,0 km/h
24.10.2014 05:00 2,3 C 86 % 993,4 hPa 0,0 l/m 0,0 km/h O-NO 0,2 C 2,3 C 0,0 km/h
24.10.2014 06:00 1,9 C 86 % 992,9 hPa 0,0 l/m 0,0 km/h O-NO -0,2 C 1,9 C 0,0 km/h
24.10.2014 07:00 1,2 C 86 % 993,3 hPa 0,0 l/m 0,0 km/h O-NO -0,9 C 1,2 C 0,0 km/h
24.10.2014 08:00 1,9 C 85 % 993,5 hPa 0,0 l/m 0,0 km/h O-NO -0,3 C 1,9 C 0,0 km/h
24.10.2014 09:00 6,8 C 80 % 993,2 hPa 0,0 l/m 0,0 km/h N-NW 3,6 C 6,8 C 0,0 km/h
24.10.2014 10:00 14,5 C 73 % 993,1 hPa 0,0 l/m 0,0 km/h W 9,7 C 14,5 C 0,0 km/h
24.10.2014 11:00 17,8 C 62 % 992,8 hPa 0,0 l/m 0,0 km/h W-SW 10,4 C 17,8 C 0,0 km/h
24.10.2014 12:00 17,6 C 59 % 992,5 hPa 0,0 l/m 0,0 km/h SW 9,5 C 17,6 C 0,0 km/h
24.10.2014 13:00 17,5 C 59 % 991,6 hPa 0,0 l/m 0,0 km/h W 9,4 C 17,5 C 0,0 km/h
24.10.2014 14:00 18,9 C 54 % 990,8 hPa 0,0 l/m 0,0 km/h SW 9,4 C 18,9 C 0,0 km/h
24.10.2014 15:00 19,5 C 53 % 990,2 hPa 0,0 l/m 0,0 km/h W 9,7 C 19,5 C 0,0 km/h
24.10.2014 16:00 19,3 C 53 % 990,3 hPa 0,0 l/m 0,0 km/h W 9,5 C 19,3 C 0,0 km/h
24.10.2014 17:00 12,6 C 64 % 990,0 hPa 0,0 l/m 0,0 km/h W 6,0 C 12,6 C 0,0 km/h
24.10.2014 18:00 8,7 C 77 % 990,1 hPa 0,0 l/m 0,0 km/h W 4,9 C 8,7 C 0,0 km/h
24.10.2014 19:00 7,4 C 82 % 990,5 hPa 0,0 l/m 0,0 km/h W 4,5 C 7,4 C 0,0 km/h
24.10.2014 20:00 6,9 C 84 % 990,5 hPa 0,0 l/m 0,0 km/h SO 4,4 C 6,9 C 0,0 km/h
24.10.2014 21:00 7,7 C 85 % 990,5 hPa 0,0 l/m 0,0 km/h SO 5,3 C 7,7 C 0,0 km/h
24.10.2014 22:00 7,9 C 85 % 990,5 hPa 0,0 l/m 0,0 km/h O-SO 5,5 C 7,9 C 0,0 km/h
24.10.2014 23:00 6,9 C 85 % 990,0 hPa 0,0 l/m 0,0 km/h O-SO 4,6 C 6,9 C 0,0 km/h
25.10.2014 00:00 6,9 C 85 % 990,0 hPa 0,0 l/m 0,0 km/h O-SO 4,6 C 6,9 C 0,0 km/h
25.10.2014 01:00 7,4 C 85 % 989,6 hPa 0,0 l/m 0,0 km/h SO 5,0 C 7,4 C 0,0 km/h
25.10.2014 02:00 7,6 C 86 % 990,0 hPa 0,0 l/m 0,0 km/h SO 5,4 C 7,6 C 0,0 km/h
25.10.2014 03:00 7,9 C 86 % 990,0 hPa 0,0 l/m 0,0 km/h SO 5,7 C 7,9 C 0,0 km/h
25.10.2014 04:00 7,9 C 86 % 989,8 hPa 0,0 l/m 1,1 km/h SO 5,7 C 7,9 C 1,1 km/h
25.10.2014 05:00 7,9 C 86 % 990,0 hPa 0,0 l/m 0,0 km/h SO 5,7 C 7,9 C 0,0 km/h
25.10.2014 06:00 8,2 C 86 % 990,1 hPa 0,0 l/m 0,0 km/h SO 6,0 C 8,2 C 0,0 km/h
25.10.2014 07:00 8,2 C 86 % 990,1 hPa 0,0 l/m 0,0 km/h SO 6,0 C 8,2 C 0,0 km/h
25.10.2014 08:00 8,6 C 86 % 990,8 hPa 0,0 l/m 0,0 km/h SO 6,4 C 8,6 C 0,0 km/h
25.10.2014 09:00 10,4 C 85 % 991,1 hPa 0,0 l/m 0,0 km/h S 8,0 C 10,4 C 0,0 km/h
25.10.2014 10:00 13,2 C 81 % 991,3 hPa 0,0 l/m 0,0 km/h S-SW 10,0 C 13,2 C 0,0 km/h
25.10.2014 11:00 15,5 C 71 % 991,6 hPa 0,0 l/m 0,0 km/h NW 10,3 C 15,5 C 0,0 km/h
25.10.2014 12:00 16,4 C 66 % 991,5 hPa 0,0 l/m 0,0 km/h O 10,0 C 16,4 C 0,0 km/h
25.10.2014 13:00 21,1 C 55 % 991,2 hPa 0,0 l/m 0,0 km/h SW 11,7 C 21,1 C 0,0 km/h
25.10.2014 14:00 17,6 C 56 % 991,0 hPa 0,0 l/m 0,0 km/h W-NW 8,7 C 17,6 C 0,0 km/h
25.10.2014 15:00 16,7 C 62 % 991,2 hPa 0,0 l/m 0,0 km/h W-NW 9,4 C 16,7 C 0,0 km/h
25.10.2014 16:00 15,2 C 67 % 991,5 hPa 0,0 l/m 0,0 km/h W-NW 9,1 C 15,2 C 0,0 km/h
25.10.2014 17:00 13,8 C 71 % 991,7 hPa 0,0 l/m 0,0 km/h W-NW 8,6 C 13,8 C 0,0 km/h
25.10.2014 18:00 12,3 C 78 % 992,2 hPa 0,0 l/m 0,0 km/h W 8,6 C 12,3 C 0,0 km/h
25.10.2014 19:00 11,3 C 80 % 992,8 hPa 0,0 l/m 0,0 km/h S-SO 8,0 C 11,3 C 0,0 km/h
25.10.2014 20:00 9,5 C 83 % 993,6 hPa 0,0 l/m 0,0 km/h S-SO 6,8 C 9,5 C 0,0 km/h
25.10.2014 21:00 9,2 C 84 % 994,0 hPa 0,0 l/m 0,0 km/h SO 6,6 C 9,2 C 0,0 km/h
25.10.2014 22:00 9,8 C 85 % 994,4 hPa 0,0 l/m 0,0 km/h SO 7,4 C 9,8 C 0,0 km/h
25.10.2014 23:00 9,3 C 85 % 994,7 hPa 0,0 l/m 0,0 km/h SO 6,9 C 9,3 C 0,0 km/h
26.10.2014 00:00 8,9 C 85 % 995,1 hPa 0,0 l/m 0,0 km/h SO 6,5 C 8,9 C 0,0 km/h
26.10.2014 01:00 9,1 C 85 % 995,3 hPa 0,0 l/m 0,0 km/h SO 6,7 C 9,1 C 0,0 km/h
26.10.2014 02:00 9,4 C 85 % 995,2 hPa 0,0 l/m 0,0 km/h SO 7,0 C 9,4 C 0,0 km/h
26.10.2014 03:00 9,5 C 85 % 995,2 hPa 0,0 l/m 0,0 km/h SO 7,1 C 9,5 C 0,0 km/h
26.10.2014 04:00 9,7 C 85 % 995,4 hPa 0,0 l/m 0,0 km/h SO 7,3 C 9,7 C 0,0 km/h
26.10.2014 05:00 9,8 C 85 % 995,4 hPa 0,0 l/m 0,0 km/h NO 7,4 C 9,8 C 0,0 km/h
26.10.2014 06:00 9,8 C 85 % 995,3 hPa 0,0 l/m 0,0 km/h NO 7,4 C 9,8 C 0,0 km/h
26.10.2014 07:00 9,4 C 85 % 996,2 hPa 0,0 l/m 0,0 km/h NO 7,0 C 9,4 C 0,0 km/h
26.10.2014 08:00 12,4 C 85 % 996,4 hPa 0,0 l/m 0,0 km/h NO 9,9 C 12,4 C 0,0 km/h
26.10.2014 09:00 16,8 C 75 % 996,8 hPa 0,0 l/m 0,0 km/h N 12,3 C 16,8 C 0,0 km/h
26.10.2014 10:00 20,3 C 64 % 996,6 hPa 0,0 l/m 0,0 km/h S-SW 13,3 C 20,3 C 0,0 km/h
26.10.2014 11:00 20,9 C 61 % 995,8 hPa 0,0 l/m 0,0 km/h W-NW 13,1 C 20,9 C 0,0 km/h
26.10.2014 12:00 20,8 C 61 % 995,2 hPa 0,0 l/m 0,0 km/h W 13,0 C 20,8 C 0,0 km/h
26.10.2014 13:00 20,8 C 62 % 994,8 hPa 0,0 l/m 0,0 km/h W 13,2 C 20,8 C 0,0 km/h
26.10.2014 14:00 21,5 C 60 % 994,8 hPa 0,0 l/m 0,0 km/h W-SW 13,4 C 21,5 C 0,0 km/h
26.10.2014 15:00 21,8 C 60 % 994,8 hPa 0,0 l/m 0,0 km/h W-SW 13,7 C 21,8 C 0,0 km/h
26.10.2014 16:00 18,1 C 65 % 994,8 hPa 0,0 l/m 0,0 km/h SW 11,4 C 18,1 C 0,0 km/h
26.10.2014 17:00 11,7 C 78 % 995,3 hPa 0,0 l/m 0,0 km/h S-SW 8,0 C 11,7 C 0,0 km/h
26.10.2014 18:00 10,2 C 83 % 995,4 hPa 0,0 l/m 0,0 km/h S-SW 7,4 C 10,2 C 0,0 km/h
26.10.2014 19:00 9,7 C 84 % 995,5 hPa 0,0 l/m 0,0 km/h S 7,1 C 9,7 C 0,0 km/h
26.10.2014 20:00 8,5 C 85 % 995,6 hPa 0,0 l/m 0,0 km/h S 6,1 C 8,5 C 0,0 km/h
26.10.2014 21:00 7,3 C 85 % 995,8 hPa 0,0 l/m 0,0 km/h S 4,9 C 7,3 C 0,0 km/h
26.10.2014 22:00 7,3 C 85 % 995,7 hPa 0,0 l/m 0,0 km/h S 4,9 C 7,3 C 0,0 km/h
26.10.2014 23:00 6,8 C 85 % 995,6 hPa 0,0 l/m 0,0 km/h S 4,5 C 6,8 C 0,0 km/h
Min-Datum _ 24.10.14 23.10.14 21.10.14 - 20.10.14 - 24.10.14 22.10.14 20.10.14
_ Min-Zeit 07:53 16:53 17:53 - 00:53 - 07:53 08:53 00:53
Minimum _ 1,2 C 50 % 976,9 hPa - 0,0 km/h - -0,9 C 0,4 C 0,0 km/h
Max-Datum _ 20.10.14 23.10.14 23.10.14 20.10.14 21.10.14 - 20.10.14 20.10.14 21.10.14
_ Max-Zeit 11:53 09:53 10:53 22:53 16:53 - 10:53 10:53 16:53
Maximum _ 26,8 C 86 % 996,9 hPa 2,1 l/m 33,0 km/h
SW
- 18,7 C 25,5 C 18,4 km/h
SW
Durchschnitt _ 11,8 C 78 % 991,4 hPa #8,9 l/m 2,2 km/h W 7,9 C 11,4 C 1,3 km/h
www.sexauwetter.de